createdAt,value
2023-05-14T00:00:01.000Z,13.27
2023-05-14T00:01:01.000Z,13.22
2023-05-14T00:02:01.000Z,13.22
2023-05-14T00:03:01.000Z,13.22
2023-05-14T00:04:01.000Z,13.22
2023-05-14T00:05:01.000Z,13.21
2023-05-14T00:06:01.000Z,13.20
2023-05-14T00:07:01.000Z,13.18
2023-05-14T00:08:01.000Z,13.20
2023-05-14T00:09:01.000Z,13.22
2023-05-14T00:10:01.000Z,13.15
2023-05-14T00:11:01.000Z,13.18
2023-05-14T00:12:01.000Z,13.15
2023-05-14T00:13:01.000Z,13.14
2023-05-14T00:14:01.000Z,13.15
2023-05-14T00:15:01.000Z,13.18
2023-05-14T00:16:02.000Z,13.15
2023-05-14T00:17:02.000Z,13.14
2023-05-14T00:18:02.000Z,13.15
2023-05-14T00:19:02.000Z,13.14
2023-05-14T00:20:02.000Z,13.18
2023-05-14T00:21:02.000Z,13.17
2023-05-14T00:22:02.000Z,13.14
2023-05-14T00:23:02.000Z,13.15
2023-05-14T00:24:02.000Z,13.17
2023-05-14T00:25:02.000Z,13.15
2023-05-14T00:26:02.000Z,13.15
2023-05-14T00:27:02.000Z,13.14
2023-05-14T00:28:02.000Z,13.17
2023-05-14T00:29:02.000Z,13.17
2023-05-14T00:30:02.000Z,13.15
2023-05-14T00:31:02.000Z,13.17
2023-05-14T00:32:02.000Z,13.17
2023-05-14T00:33:02.000Z,13.14
2023-05-14T00:34:02.000Z,13.15
2023-05-14T00:35:03.000Z,13.15
2023-05-14T00:36:03.000Z,13.17
2023-05-14T00:37:03.000Z,13.14
2023-05-14T00:38:03.000Z,13.12
2023-05-14T00:39:03.000Z,13.14
2023-05-14T00:40:03.000Z,13.17
2023-05-14T00:41:03.000Z,13.14
2023-05-14T00:42:03.000Z,13.14
2023-05-14T00:43:03.000Z,13.14
2023-05-14T00:44:03.000Z,13.18
2023-05-14T00:45:03.000Z,13.14
2023-05-14T00:46:03.000Z,13.14
2023-05-14T00:47:03.000Z,13.12
2023-05-14T00:48:03.000Z,13.11
2023-05-14T00:49:03.000Z,13.11
2023-05-14T00:50:03.000Z,13.07
2023-05-14T00:51:03.000Z,13.03
2023-05-14T00:52:03.000Z,13.03
2023-05-14T00:53:03.000Z,13.00
2023-05-14T00:54:03.000Z,13.00
2023-05-14T00:55:04.000Z,12.97
2023-05-14T00:56:04.000Z,12.96
2023-05-14T00:57:04.000Z,12.96
2023-05-14T00:58:04.000Z,12.93
2023-05-14T00:59:04.000Z,12.93
2023-05-14T01:00:04.000Z,12.89
2023-05-14T01:01:04.000Z,12.88
2023-05-14T01:02:04.000Z,12.87
2023-05-14T01:03:04.000Z,12.84
2023-05-14T01:04:04.000Z,12.84
2023-05-14T01:05:04.000Z,12.85
2023-05-14T01:06:04.000Z,12.81
2023-05-14T01:07:04.000Z,12.81
2023-05-14T01:08:04.000Z,12.84
2023-05-14T01:09:04.000Z,12.81
2023-05-14T01:10:04.000Z,12.78
2023-05-14T01:11:04.000Z,12.81
2023-05-14T01:12:04.000Z,12.77
2023-05-14T01:13:04.000Z,12.79
2023-05-14T01:14:05.000Z,12.79
2023-05-14T01:15:05.000Z,12.81
2023-05-14T01:16:05.000Z,12.77
2023-05-14T01:17:05.000Z,12.75
2023-05-14T01:18:05.000Z,12.75
2023-05-14T01:19:05.000Z,12.71
2023-05-14T01:20:05.000Z,12.74
2023-05-14T01:21:05.000Z,12.74
2023-05-14T01:22:05.000Z,12.70
2023-05-14T01:23:05.000Z,12.69
2023-05-14T01:24:05.000Z,12.74
2023-05-14T01:25:05.000Z,12.70
2023-05-14T01:26:05.000Z,12.69
2023-05-14T01:27:05.000Z,12.69
2023-05-14T01:28:05.000Z,12.70
2023-05-14T01:29:05.000Z,12.67
2023-05-14T01:30:05.000Z,12.67
2023-05-14T01:31:05.000Z,12.69
2023-05-14T01:32:05.000Z,12.69
2023-05-14T01:33:06.000Z,12.71
2023-05-14T01:34:06.000Z,12.70
2023-05-14T01:35:06.000Z,12.70
2023-05-14T01:36:06.000Z,12.70
2023-05-14T01:37:06.000Z,12.70
2023-05-14T01:38:06.000Z,12.69
2023-05-14T01:39:06.000Z,12.67
2023-05-14T01:40:06.000Z,12.66
2023-05-14T01:41:06.000Z,12.66
2023-05-14T01:42:06.000Z,12.66
2023-05-14T01:43:06.000Z,12.64
2023-05-14T01:44:06.000Z,12.66
2023-05-14T01:45:06.000Z,12.66
2023-05-14T01:46:06.000Z,12.64
2023-05-14T01:47:06.000Z,12.67
2023-05-14T01:48:06.000Z,12.67
2023-05-14T01:49:06.000Z,12.67
2023-05-14T01:50:06.000Z,12.66
2023-05-14T01:51:07.000Z,12.67
2023-05-14T01:52:07.000Z,12.63
2023-05-14T01:53:07.000Z,12.62
2023-05-14T01:54:07.000Z,12.62
2023-05-14T01:55:07.000Z,12.60
2023-05-14T01:56:07.000Z,12.57
2023-05-14T01:57:07.000Z,12.56
2023-05-14T01:58:07.000Z,12.54
2023-05-14T01:59:07.000Z,12.54
2023-05-14T02:00:07.000Z,12.51
2023-05-14T02:01:07.000Z,12.51
2023-05-14T02:02:07.000Z,12.48
2023-05-14T02:03:07.000Z,12.46
2023-05-14T02:04:07.000Z,12.48
2023-05-14T02:05:07.000Z,12.41
2023-05-14T02:06:07.000Z,12.44
2023-05-14T02:07:07.000Z,12.42
2023-05-14T02:08:07.000Z,12.39
2023-05-14T02:09:08.000Z,12.41
2023-05-14T02:10:08.000Z,12.39
2023-05-14T02:11:08.000Z,12.39
2023-05-14T02:12:08.000Z,12.33
2023-05-14T02:13:08.000Z,12.34
2023-05-14T02:14:08.000Z,12.31
2023-05-14T02:15:08.000Z,12.30
2023-05-14T02:16:08.000Z,12.30
2023-05-14T02:17:08.000Z,12.29
2023-05-14T02:18:08.000Z,12.27
2023-05-14T02:19:08.000Z,12.26
2023-05-14T02:20:08.000Z,12.30
2023-05-14T02:21:08.000Z,12.23
2023-05-14T02:22:08.000Z,12.24
2023-05-14T02:23:08.000Z,12.21
2023-05-14T02:24:08.000Z,12.20
2023-05-14T02:25:08.000Z,12.21
2023-05-14T02:26:09.000Z,12.21
2023-05-14T02:27:09.000Z,12.19
2023-05-14T02:28:09.000Z,12.20
2023-05-14T02:29:09.000Z,12.19
2023-05-14T02:30:09.000Z,12.19
2023-05-14T02:31:09.000Z,12.16
2023-05-14T02:32:09.000Z,12.19
2023-05-14T02:33:09.000Z,12.19
2023-05-14T02:34:09.000Z,12.16
2023-05-14T02:35:09.000Z,12.15
2023-05-14T02:36:09.000Z,12.12
2023-05-14T02:37:09.000Z,12.13
2023-05-14T02:38:09.000Z,12.16
2023-05-14T02:39:09.000Z,12.16
2023-05-14T02:40:09.000Z,12.13
2023-05-14T02:41:09.000Z,12.13
2023-05-14T02:42:09.000Z,12.12
2023-05-14T02:43:10.000Z,12.12
2023-05-14T02:44:10.000Z,12.11
2023-05-14T02:45:10.000Z,12.12
2023-05-14T02:46:10.000Z,12.11
2023-05-14T02:47:10.000Z,12.11
2023-05-14T02:48:10.000Z,12.12
2023-05-14T02:49:10.000Z,12.13
2023-05-14T02:50:10.000Z,12.13
2023-05-14T02:51:10.000Z,12.11
2023-05-14T02:52:10.000Z,12.09
2023-05-14T02:53:10.000Z,12.11
2023-05-14T02:54:10.000Z,12.06
2023-05-14T03:02:29.000Z,12.05
2023-05-14T03:02:29.000Z,12.08
2023-05-14T03:03:29.000Z,12.05
2023-05-14T03:04:29.000Z,12.01
2023-05-14T03:05:29.000Z,12.02
2023-05-14T03:06:29.000Z,12.01
2023-05-14T03:07:29.000Z,11.99
2023-05-14T03:08:29.000Z,11.96
2023-05-14T03:09:29.000Z,11.94
2023-05-14T03:10:29.000Z,11.94
2023-05-14T03:11:29.000Z,11.89
2023-05-14T03:12:29.000Z,11.87
2023-05-14T03:13:29.000Z,11.86
2023-05-14T03:14:29.000Z,11.83
2023-05-14T03:15:29.000Z,11.82
2023-05-14T03:16:29.000Z,11.82
2023-05-14T03:17:29.000Z,11.85
2023-05-14T03:18:29.000Z,11.80
2023-05-14T03:19:29.000Z,11.78
2023-05-14T03:20:29.000Z,11.75
2023-05-14T03:21:29.000Z,11.75
2023-05-14T03:22:29.000Z,11.77
2023-05-14T03:23:29.000Z,11.77
2023-05-14T03:24:29.000Z,11.74
2023-05-14T03:25:29.000Z,11.72
2023-05-14T03:26:29.000Z,11.72
2023-05-14T03:27:29.000Z,11.71
2023-05-14T03:28:29.000Z,11.72
2023-05-14T03:29:29.000Z,11.70
2023-05-14T03:30:29.000Z,11.71
2023-05-14T03:31:29.000Z,11.65
2023-05-14T03:32:29.000Z,11.70
2023-05-14T03:33:29.000Z,11.70
2023-05-14T03:34:29.000Z,11.68
2023-05-14T03:35:29.000Z,11.68
2023-05-14T03:36:29.000Z,11.68
2023-05-14T03:37:29.000Z,11.64
2023-05-14T03:38:29.000Z,11.71
2023-05-14T03:39:29.000Z,11.68
2023-05-14T03:40:29.000Z,11.65
2023-05-14T03:41:29.000Z,11.65
2023-05-14T03:42:29.000Z,11.64
2023-05-14T03:43:29.000Z,11.64
2023-05-14T03:44:29.000Z,11.59
2023-05-14T03:45:29.000Z,11.59
2023-05-14T03:46:29.000Z,11.61
2023-05-14T03:47:29.000Z,11.56
2023-05-14T03:48:29.000Z,11.59
2023-05-14T03:49:29.000Z,11.59
2023-05-14T03:50:29.000Z,11.56
2023-05-14T03:51:29.000Z,11.54
2023-05-14T03:52:29.000Z,11.53
2023-05-14T03:53:29.000Z,11.54
2023-05-14T03:54:29.000Z,11.56
2023-05-14T03:55:29.000Z,11.52
2023-05-14T03:56:29.000Z,11.54
2023-05-14T03:57:29.000Z,11.52
2023-05-14T03:58:29.000Z,11.49
2023-05-14T03:59:29.000Z,11.56
2023-05-14T04:00:29.000Z,11.52
2023-05-14T04:01:29.000Z,11.52
2023-05-14T04:02:29.000Z,11.52
2023-05-14T04:03:29.000Z,11.50
2023-05-14T04:04:29.000Z,11.52
2023-05-14T04:05:29.000Z,11.52
2023-05-14T04:06:29.000Z,11.53
2023-05-14T04:07:29.000Z,11.50
2023-05-14T04:08:29.000Z,11.52
2023-05-14T04:09:29.000Z,11.53
2023-05-14T04:10:29.000Z,11.52
2023-05-14T04:11:29.000Z,11.53
2023-05-14T04:12:29.000Z,11.52
2023-05-14T04:13:29.000Z,11.54
2023-05-14T04:14:29.000Z,11.53
2023-05-14T04:15:29.000Z,11.52
2023-05-14T04:16:29.000Z,11.57
2023-05-14T04:17:29.000Z,11.54
2023-05-14T04:18:29.000Z,11.56
2023-05-14T04:19:29.000Z,11.61
2023-05-14T04:20:29.000Z,11.61
2023-05-14T04:21:29.000Z,11.62
2023-05-14T04:22:29.000Z,11.64
2023-05-14T04:23:29.000Z,11.65
2023-05-14T04:24:29.000Z,11.64
2023-05-14T04:25:29.000Z,11.67
2023-05-14T04:26:29.000Z,11.71
2023-05-14T04:27:29.000Z,11.74
2023-05-14T04:28:29.000Z,11.75
2023-05-14T04:29:29.000Z,11.77
2023-05-14T04:30:29.000Z,11.80
2023-05-14T04:31:29.000Z,11.82
2023-05-14T04:32:29.000Z,11.83
2023-05-14T04:33:29.000Z,11.85
2023-05-14T04:34:29.000Z,11.86
2023-05-14T04:35:29.000Z,11.86
2023-05-14T04:36:29.000Z,11.93
2023-05-14T04:37:29.000Z,11.90
2023-05-14T04:38:29.000Z,11.93
2023-05-14T04:39:29.000Z,11.99
2023-05-14T04:40:29.000Z,11.96
2023-05-14T04:41:29.000Z,11.97
2023-05-14T04:42:29.000Z,12.02
2023-05-14T04:43:29.000Z,12.04
2023-05-14T04:44:29.000Z,12.06
2023-05-14T04:45:29.000Z,12.08
2023-05-14T04:46:29.000Z,12.08
2023-05-14T04:47:29.000Z,12.11
2023-05-14T04:48:29.000Z,12.09
2023-05-14T04:49:29.000Z,12.13
2023-05-14T04:50:29.000Z,12.13
2023-05-14T04:51:29.000Z,12.15
2023-05-14T04:52:29.000Z,12.21
2023-05-14T04:53:29.000Z,12.20
2023-05-14T04:54:29.000Z,12.21
2023-05-14T04:55:29.000Z,12.24
2023-05-14T04:56:29.000Z,12.24
2023-05-14T04:57:29.000Z,12.29
2023-05-14T04:58:29.000Z,12.33
2023-05-14T04:59:29.000Z,12.34
2023-05-14T05:00:29.000Z,12.37
2023-05-14T05:01:29.000Z,12.38
2023-05-14T05:02:29.000Z,12.41
2023-05-14T05:03:29.000Z,12.45
2023-05-14T05:04:29.000Z,12.49
2023-05-14T05:05:29.000Z,12.51
2023-05-14T05:06:29.000Z,12.56
2023-05-14T05:07:29.000Z,12.59
2023-05-14T05:08:29.000Z,12.67
2023-05-14T05:09:29.000Z,12.67
2023-05-14T05:10:29.000Z,12.66
2023-05-14T05:11:29.000Z,12.70
2023-05-14T05:12:29.000Z,12.71
2023-05-14T05:13:29.000Z,12.77
2023-05-14T05:14:29.000Z,12.75
2023-05-14T05:15:29.000Z,12.78
2023-05-14T05:16:29.000Z,12.81
2023-05-14T05:17:29.000Z,12.88
2023-05-14T05:18:29.000Z,12.95
2023-05-14T05:19:29.000Z,12.93
2023-05-14T05:20:29.000Z,12.97
2023-05-14T05:21:29.000Z,13.00
2023-05-14T05:22:29.000Z,13.04
2023-05-14T05:23:29.000Z,13.09
2023-05-14T05:24:29.000Z,13.14
2023-05-14T05:25:29.000Z,13.14
2023-05-14T05:26:29.000Z,13.17
2023-05-14T05:27:29.000Z,13.24
2023-05-14T05:28:29.000Z,13.27
2023-05-14T05:29:29.000Z,13.32
2023-05-14T05:30:29.000Z,13.36
2023-05-14T05:31:29.000Z,13.40
2023-05-14T05:32:29.000Z,13.44
2023-05-14T05:33:29.000Z,13.46
2023-05-14T05:34:29.000Z,13.47
2023-05-14T05:35:29.000Z,13.52
2023-05-14T05:36:29.000Z,13.56
2023-05-14T05:37:29.000Z,13.59
2023-05-14T05:38:29.000Z,13.61
2023-05-14T05:39:29.000Z,13.65
2023-05-14T05:40:29.000Z,13.73
2023-05-14T05:41:29.000Z,13.80
2023-05-14T05:42:29.000Z,13.79
2023-05-14T05:43:29.000Z,13.87
2023-05-14T05:44:29.000Z,13.87
2023-05-14T05:45:29.000Z,13.91
2023-05-14T05:46:29.000Z,13.92
2023-05-14T05:47:29.000Z,13.98
2023-05-14T05:48:29.000Z,13.95
2023-05-14T05:49:29.000Z,13.98
2023-05-14T05:50:29.000Z,13.99
2023-05-14T05:51:29.000Z,13.99
2023-05-14T05:52:29.000Z,14.04
2023-05-14T05:53:29.000Z,14.10
2023-05-14T05:54:29.000Z,14.13
2023-05-14T05:55:29.000Z,14.19
2023-05-14T05:56:29.000Z,14.24
2023-05-14T05:57:29.000Z,14.24
2023-05-14T05:58:29.000Z,14.34
2023-05-14T05:59:29.000Z,14.34
2023-05-14T06:00:29.000Z,14.38
2023-05-14T06:01:29.000Z,14.38
2023-05-14T06:02:29.000Z,14.44
2023-05-14T06:03:29.000Z,14.42
2023-05-14T06:04:29.000Z,14.44
2023-05-14T06:05:29.000Z,14.44
2023-05-14T06:06:29.000Z,14.46
2023-05-14T06:07:29.000Z,14.50
2023-05-14T06:08:29.000Z,14.50
2023-05-14T06:09:29.000Z,14.53
2023-05-14T06:10:29.000Z,14.57
2023-05-14T06:11:29.000Z,14.53
2023-05-14T06:12:29.000Z,14.57
2023-05-14T06:13:29.000Z,14.61
2023-05-14T06:14:29.000Z,14.64
2023-05-14T06:15:29.000Z,14.65
2023-05-14T06:16:29.000Z,14.68
2023-05-14T06:17:29.000Z,14.72
2023-05-14T06:18:29.000Z,14.71
2023-05-14T06:19:29.000Z,14.72
2023-05-14T06:20:29.000Z,14.72
2023-05-14T06:21:29.000Z,14.75
2023-05-14T06:22:29.000Z,14.81
2023-05-14T06:23:29.000Z,14.90
2023-05-14T06:24:29.000Z,14.94
2023-05-14T06:25:29.000Z,15.01
2023-05-14T06:26:29.000Z,15.06
2023-05-14T06:27:29.000Z,15.08
2023-05-14T06:28:29.000Z,15.17
2023-05-14T06:29:29.000Z,15.23
2023-05-14T06:30:29.000Z,15.35
2023-05-14T06:31:29.000Z,15.41
2023-05-14T06:32:29.000Z,15.48
2023-05-14T06:33:29.000Z,15.56
2023-05-14T06:34:29.000Z,15.52
2023-05-14T06:35:29.000Z,15.57
2023-05-14T06:36:29.000Z,15.56
2023-05-14T06:37:29.000Z,15.57
2023-05-14T06:38:29.000Z,15.60
2023-05-14T06:39:29.000Z,15.64
2023-05-14T06:40:28.000Z,15.63
2023-05-14T06:41:28.000Z,15.64
2023-05-14T06:42:28.000Z,15.70
2023-05-14T06:43:28.000Z,15.76
2023-05-14T06:44:28.000Z,15.75
2023-05-14T06:45:28.000Z,15.78
2023-05-14T06:46:28.000Z,15.84
2023-05-14T06:47:28.000Z,15.86
2023-05-14T06:48:28.000Z,15.89
2023-05-14T06:49:28.000Z,15.88
2023-05-14T06:50:28.000Z,15.92
2023-05-14T06:51:28.000Z,15.99
2023-05-14T06:52:28.000Z,16.00
2023-05-14T06:53:28.000Z,16.01
2023-05-14T06:54:28.000Z,16.07
2023-05-14T06:55:28.000Z,16.09
2023-05-14T06:56:28.000Z,16.14
2023-05-14T06:57:28.000Z,16.06
2023-05-14T06:58:28.000Z,16.04
2023-05-14T06:59:28.000Z,16.01
2023-05-14T07:00:28.000Z,15.99
2023-05-14T07:01:28.000Z,16.00
2023-05-14T07:02:28.000Z,16.01
2023-05-14T07:03:28.000Z,16.06
2023-05-14T07:04:28.000Z,16.06
2023-05-14T07:05:28.000Z,16.07
2023-05-14T07:06:28.000Z,16.04
2023-05-14T07:07:28.000Z,16.11
2023-05-14T07:08:28.000Z,16.11
2023-05-14T07:09:28.000Z,16.18
2023-05-14T07:10:28.000Z,16.22
2023-05-14T07:11:28.000Z,16.23
2023-05-14T07:12:27.000Z,16.31
2023-05-14T07:13:27.000Z,16.33
2023-05-14T07:14:27.000Z,16.34
2023-05-14T07:15:27.000Z,16.33
2023-05-14T07:16:27.000Z,16.38
2023-05-14T07:17:27.000Z,16.45
2023-05-14T07:18:27.000Z,16.50
2023-05-14T07:19:27.000Z,16.60
2023-05-14T07:20:27.000Z,16.67
2023-05-14T07:21:27.000Z,16.75
2023-05-14T07:22:27.000Z,16.74
2023-05-14T07:23:27.000Z,16.86
2023-05-14T07:24:27.000Z,16.88
2023-05-14T07:25:27.000Z,16.86
2023-05-14T07:26:27.000Z,16.92
2023-05-14T07:27:27.000Z,16.95
2023-05-14T07:28:27.000Z,16.92
2023-05-14T07:29:27.000Z,16.92
2023-05-14T07:30:27.000Z,16.95
2023-05-14T07:31:27.000Z,16.93
2023-05-14T07:32:27.000Z,16.88
2023-05-14T07:33:27.000Z,16.88
2023-05-14T07:34:27.000Z,16.88
2023-05-14T07:35:27.000Z,16.88
2023-05-14T07:36:27.000Z,16.88
2023-05-14T07:37:27.000Z,16.89
2023-05-14T07:38:27.000Z,16.86
2023-05-14T07:39:27.000Z,16.89
2023-05-14T07:40:26.000Z,16.93
2023-05-14T07:41:26.000Z,16.92
2023-05-14T07:42:26.000Z,16.96
2023-05-14T07:43:26.000Z,16.98
2023-05-14T07:44:26.000Z,16.98
2023-05-14T07:45:26.000Z,16.95
2023-05-14T07:46:26.000Z,16.93
2023-05-14T07:47:26.000Z,16.92
2023-05-14T07:48:26.000Z,16.93
2023-05-14T07:49:26.000Z,16.93
2023-05-14T07:50:26.000Z,16.99
2023-05-14T07:51:26.000Z,16.96
2023-05-14T07:52:26.000Z,16.95
2023-05-14T07:53:26.000Z,16.99
2023-05-14T07:54:26.000Z,17.00
2023-05-14T07:55:26.000Z,17.07
2023-05-14T07:56:26.000Z,17.14
2023-05-14T07:57:26.000Z,17.18
2023-05-14T07:58:26.000Z,17.25
2023-05-14T07:59:26.000Z,17.29
2023-05-14T08:00:26.000Z,17.30
2023-05-14T08:01:26.000Z,17.36
2023-05-14T08:02:26.000Z,17.40
2023-05-14T08:03:26.000Z,17.38
2023-05-14T08:04:26.000Z,17.40
2023-05-14T08:05:25.000Z,17.35
2023-05-14T08:06:25.000Z,17.32
2023-05-14T08:07:25.000Z,17.29
2023-05-14T08:08:25.000Z,17.29
2023-05-14T08:09:25.000Z,17.30
2023-05-14T08:10:25.000Z,17.28
2023-05-14T08:11:25.000Z,17.32
2023-05-14T08:12:25.000Z,17.33
2023-05-14T08:13:25.000Z,17.35
2023-05-14T08:14:25.000Z,17.32
2023-05-14T08:15:25.000Z,17.33
2023-05-14T08:16:25.000Z,17.35
2023-05-14T08:17:25.000Z,17.35
2023-05-14T08:18:25.000Z,17.41
2023-05-14T08:19:25.000Z,17.46
2023-05-14T08:20:25.000Z,17.55
2023-05-14T08:21:25.000Z,17.55
2023-05-14T08:22:25.000Z,17.57
2023-05-14T08:23:25.000Z,17.57
2023-05-14T08:24:25.000Z,17.62
2023-05-14T08:25:25.000Z,17.70
2023-05-14T08:26:25.000Z,17.66
2023-05-14T08:27:25.000Z,17.63
2023-05-14T08:28:25.000Z,17.62
2023-05-14T08:29:24.000Z,17.59
2023-05-14T08:30:24.000Z,17.59
2023-05-14T08:31:24.000Z,17.62
2023-05-14T08:32:24.000Z,17.62
2023-05-14T08:33:24.000Z,17.67
2023-05-14T08:34:24.000Z,17.70
2023-05-14T08:35:24.000Z,17.66
2023-05-14T08:36:24.000Z,17.67
2023-05-14T08:37:24.000Z,17.69
2023-05-14T08:38:24.000Z,17.67
2023-05-14T08:39:24.000Z,17.66
2023-05-14T08:40:24.000Z,17.62
2023-05-14T08:41:24.000Z,17.63
2023-05-14T08:42:24.000Z,17.62
2023-05-14T08:43:24.000Z,17.66
2023-05-14T08:44:24.000Z,17.71
2023-05-14T08:45:24.000Z,17.73
2023-05-14T08:46:24.000Z,17.71
2023-05-14T08:47:24.000Z,17.69
2023-05-14T08:48:24.000Z,17.64
2023-05-14T08:49:24.000Z,17.62
2023-05-14T08:50:24.000Z,17.51
2023-05-14T08:51:24.000Z,17.47
2023-05-14T08:52:23.000Z,17.44
2023-05-14T08:53:23.000Z,17.43
2023-05-14T08:54:23.000Z,17.48
2023-05-14T08:55:23.000Z,17.53
2023-05-14T08:56:23.000Z,17.59
2023-05-14T08:57:23.000Z,17.63
2023-05-14T08:58:23.000Z,17.67
2023-05-14T08:59:23.000Z,17.70
2023-05-14T09:00:23.000Z,17.71
2023-05-14T09:01:23.000Z,17.82
2023-05-14T09:02:23.000Z,17.87
2023-05-14T09:03:23.000Z,17.91
2023-05-14T09:04:23.000Z,17.95
2023-05-14T09:05:23.000Z,17.95
2023-05-14T09:06:23.000Z,18.00
2023-05-14T09:07:23.000Z,18.06
2023-05-14T09:08:23.000Z,18.15
2023-05-14T09:09:23.000Z,18.19
2023-05-14T09:10:23.000Z,18.27
2023-05-14T09:11:23.000Z,18.29
2023-05-14T09:12:23.000Z,18.31
2023-05-14T09:13:22.000Z,18.27
2023-05-14T09:14:22.000Z,18.29
2023-05-14T09:15:22.000Z,18.22
2023-05-14T09:16:22.000Z,18.18
2023-05-14T09:17:22.000Z,18.17
2023-05-14T09:18:22.000Z,18.22
2023-05-14T09:19:22.000Z,18.33
2023-05-14T09:20:22.000Z,18.39
2023-05-14T09:21:22.000Z,18.44
2023-05-14T09:22:22.000Z,18.43
2023-05-14T09:23:22.000Z,18.47
2023-05-14T09:24:22.000Z,18.49
2023-05-14T09:25:22.000Z,18.46
2023-05-14T09:26:22.000Z,18.46
2023-05-14T09:27:22.000Z,18.47
2023-05-14T09:28:22.000Z,18.47
2023-05-14T09:29:22.000Z,18.47
2023-05-14T09:30:22.000Z,18.44
2023-05-14T09:31:22.000Z,18.52
2023-05-14T09:32:22.000Z,18.54
2023-05-14T09:33:22.000Z,18.55
2023-05-14T09:34:22.000Z,18.58
2023-05-14T09:35:22.000Z,18.72
2023-05-14T09:36:21.000Z,18.86
2023-05-14T09:37:21.000Z,18.98
2023-05-14T09:38:21.000Z,19.13
2023-05-14T09:39:21.000Z,19.17
2023-05-14T09:40:21.000Z,19.20
2023-05-14T09:41:21.000Z,19.18
2023-05-14T09:42:21.000Z,19.17
2023-05-14T09:43:21.000Z,19.15
2023-05-14T09:44:21.000Z,19.10
2023-05-14T09:45:21.000Z,19.06
2023-05-14T09:46:21.000Z,18.95
2023-05-14T09:47:21.000Z,18.86
2023-05-14T09:48:21.000Z,18.79
2023-05-14T09:49:21.000Z,18.65
2023-05-14T09:50:21.000Z,18.50
2023-05-14T09:51:21.000Z,18.44
2023-05-14T09:52:21.000Z,18.39
2023-05-14T09:53:21.000Z,18.29
2023-05-14T09:54:21.000Z,18.22
2023-05-14T09:55:21.000Z,18.19
2023-05-14T09:56:21.000Z,18.18
2023-05-14T09:57:20.000Z,18.07
2023-05-14T09:58:20.000Z,18.04
2023-05-14T09:59:20.000Z,17.99
2023-05-14T10:00:20.000Z,17.99
2023-05-14T10:01:20.000Z,17.95
2023-05-14T10:02:20.000Z,17.95
2023-05-14T10:03:20.000Z,17.91
2023-05-14T10:04:20.000Z,17.89
2023-05-14T10:05:20.000Z,17.91
2023-05-14T10:06:20.000Z,17.87
2023-05-14T10:07:20.000Z,17.89
2023-05-14T10:08:20.000Z,17.92
2023-05-14T10:09:20.000Z,17.89
2023-05-14T10:10:20.000Z,17.94
2023-05-14T10:11:20.000Z,17.88
2023-05-14T10:12:20.000Z,17.94
2023-05-14T10:13:20.000Z,18.02
2023-05-14T10:14:20.000Z,18.02
2023-05-14T10:15:20.000Z,18.03
2023-05-14T10:16:19.000Z,18.04
2023-05-14T10:17:19.000Z,18.12
2023-05-14T10:18:19.000Z,18.17
2023-05-14T10:19:19.000Z,18.21
2023-05-14T10:20:19.000Z,18.21
2023-05-14T10:21:19.000Z,18.24
2023-05-14T10:22:19.000Z,18.27
2023-05-14T10:23:19.000Z,18.27
2023-05-14T10:24:19.000Z,18.29
2023-05-14T10:25:19.000Z,18.29
2023-05-14T10:26:19.000Z,18.28
2023-05-14T10:27:19.000Z,18.33
2023-05-14T10:28:19.000Z,18.37
2023-05-14T10:29:19.000Z,18.39
2023-05-14T10:30:19.000Z,18.43
2023-05-14T10:31:19.000Z,18.40
2023-05-14T10:32:19.000Z,18.39
2023-05-14T10:33:19.000Z,18.43
2023-05-14T10:34:19.000Z,18.47
2023-05-14T10:35:19.000Z,18.47
2023-05-14T10:36:18.000Z,18.52
2023-05-14T10:37:18.000Z,18.50
2023-05-14T10:38:18.000Z,18.58
2023-05-14T10:39:18.000Z,18.55
2023-05-14T10:40:18.000Z,18.58
2023-05-14T10:41:18.000Z,18.58
2023-05-14T10:42:18.000Z,18.61
2023-05-14T10:43:18.000Z,18.55
2023-05-14T10:44:18.000Z,18.59
2023-05-14T10:45:18.000Z,18.59
2023-05-14T10:46:18.000Z,18.61
2023-05-14T10:47:18.000Z,18.62
2023-05-14T10:48:18.000Z,18.64
2023-05-14T10:49:18.000Z,18.65
2023-05-14T10:50:18.000Z,18.67
2023-05-14T10:51:18.000Z,18.65
2023-05-14T10:52:18.000Z,18.65
2023-05-14T10:53:18.000Z,18.67
2023-05-14T10:54:18.000Z,18.65
2023-05-14T10:55:18.000Z,18.68
2023-05-14T10:56:17.000Z,18.73
2023-05-14T10:57:17.000Z,18.73
2023-05-14T10:58:17.000Z,18.70
2023-05-14T10:59:17.000Z,18.67
2023-05-14T11:00:17.000Z,18.67
2023-05-14T11:01:17.000Z,18.74
2023-05-14T11:02:17.000Z,18.74
2023-05-14T11:03:17.000Z,18.70
2023-05-14T11:04:17.000Z,18.68
2023-05-14T11:05:17.000Z,18.68
2023-05-14T11:06:17.000Z,18.65
2023-05-14T11:07:17.000Z,18.67
2023-05-14T11:08:17.000Z,18.67
2023-05-14T11:09:17.000Z,18.73
2023-05-14T11:10:17.000Z,18.68
2023-05-14T11:11:17.000Z,18.73
2023-05-14T11:12:17.000Z,18.70
2023-05-14T11:13:17.000Z,18.76
2023-05-14T11:14:17.000Z,18.80
2023-05-14T11:15:16.000Z,18.83
2023-05-14T11:16:16.000Z,18.87
2023-05-14T11:17:16.000Z,18.87
2023-05-14T11:18:16.000Z,18.95
2023-05-14T11:19:16.000Z,18.91
2023-05-14T11:20:16.000Z,18.94
2023-05-14T11:21:16.000Z,18.98
2023-05-14T11:22:16.000Z,19.11
2023-05-14T11:23:16.000Z,19.17
2023-05-14T11:24:16.000Z,19.25
2023-05-14T11:25:16.000Z,19.33
2023-05-14T11:26:16.000Z,19.43
2023-05-14T11:27:16.000Z,19.51
2023-05-14T11:28:16.000Z,19.54
2023-05-14T11:29:16.000Z,19.63
2023-05-14T11:30:16.000Z,19.72
2023-05-14T11:31:16.000Z,19.83
2023-05-14T11:32:16.000Z,19.87
2023-05-14T11:33:16.000Z,19.88
2023-05-14T11:34:15.000Z,19.79
2023-05-14T11:35:15.000Z,19.72
2023-05-14T11:36:15.000Z,19.61
2023-05-14T11:37:15.000Z,19.53
2023-05-14T11:38:15.000Z,19.53
2023-05-14T11:39:15.000Z,19.47
2023-05-14T11:40:15.000Z,19.43
2023-05-14T11:41:15.000Z,19.32
2023-05-14T11:42:15.000Z,19.25
2023-05-14T11:43:15.000Z,19.17
2023-05-14T11:44:15.000Z,19.17
2023-05-14T11:45:15.000Z,19.20
2023-05-14T11:46:15.000Z,19.18
2023-05-14T11:47:15.000Z,19.18
2023-05-14T11:48:15.000Z,19.21
2023-05-14T11:49:15.000Z,19.23
2023-05-14T11:50:14.000Z,19.21
2023-05-14T11:51:14.000Z,19.21
2023-05-14T11:52:14.000Z,19.18
2023-05-14T11:53:14.000Z,19.13
2023-05-14T11:54:14.000Z,19.14
2023-05-14T11:55:14.000Z,19.13
2023-05-14T11:56:14.000Z,19.11
2023-05-14T11:57:14.000Z,19.14
2023-05-14T11:58:14.000Z,19.17
2023-05-14T11:59:14.000Z,19.18
2023-05-14T12:00:14.000Z,19.20
2023-05-14T12:01:14.000Z,19.18
2023-05-14T12:02:14.000Z,19.18
2023-05-14T12:03:14.000Z,19.18
2023-05-14T12:04:14.000Z,19.17
2023-05-14T12:05:14.000Z,19.11
2023-05-14T12:06:14.000Z,19.06
2023-05-14T12:07:13.000Z,19.02
2023-05-14T12:08:13.000Z,18.98
2023-05-14T12:09:13.000Z,18.92
2023-05-14T12:10:13.000Z,18.84
2023-05-14T12:11:13.000Z,18.83
2023-05-14T12:12:13.000Z,18.80
2023-05-14T12:13:13.000Z,18.84
2023-05-14T12:14:13.000Z,18.83
2023-05-14T12:15:13.000Z,18.84
2023-05-14T12:16:13.000Z,18.92
2023-05-14T12:17:13.000Z,18.92
2023-05-14T12:18:13.000Z,18.94
2023-05-14T12:19:13.000Z,18.99
2023-05-14T12:20:13.000Z,19.02
2023-05-14T12:21:13.000Z,19.10
2023-05-14T12:22:13.000Z,19.13
2023-05-14T12:23:12.000Z,19.13
2023-05-14T12:24:12.000Z,19.18
2023-05-14T12:25:12.000Z,19.21
2023-05-14T12:26:12.000Z,19.15
2023-05-14T12:27:12.000Z,19.15
2023-05-14T12:28:12.000Z,19.15
2023-05-14T12:29:12.000Z,19.18
2023-05-14T12:30:12.000Z,19.08
2023-05-14T12:31:12.000Z,19.08
2023-05-14T12:32:12.000Z,19.06
2023-05-14T12:33:12.000Z,19.05
2023-05-14T12:34:12.000Z,19.06
2023-05-14T12:35:12.000Z,19.06
2023-05-14T12:36:12.000Z,19.08
2023-05-14T12:37:12.000Z,19.08
2023-05-14T12:38:12.000Z,19.10
2023-05-14T12:39:12.000Z,19.13
2023-05-14T12:40:11.000Z,19.10
2023-05-14T12:41:11.000Z,19.13
2023-05-14T12:42:11.000Z,19.11
2023-05-14T12:43:11.000Z,19.11
2023-05-14T12:44:11.000Z,19.13
2023-05-14T12:45:11.000Z,19.13
2023-05-14T12:46:11.000Z,19.14
2023-05-14T12:47:11.000Z,19.17
2023-05-14T12:48:11.000Z,19.15
2023-05-14T12:49:11.000Z,19.18
2023-05-14T12:50:11.000Z,19.18
2023-05-14T12:51:11.000Z,19.18
2023-05-14T12:52:11.000Z,19.24
2023-05-14T12:53:11.000Z,19.31
2023-05-14T12:54:11.000Z,19.35
2023-05-14T12:55:11.000Z,19.38
2023-05-14T12:56:11.000Z,19.35
2023-05-14T12:57:10.000Z,19.39
2023-05-14T12:58:10.000Z,19.47